Terminal Aerodrome Forecast
Issued by NWS Sterling, VA

Home | Current Version | Previous Version | Text Only | Print | Product List | Glossary On
Versions: 1 2 3 4 5 6 7 8 9 10 11 12 13 14 15 16 17 18 19 20 21 22 23 24 25
000
FTUS41 KLWX 301120
TAFBWI
TAF
KBWI 301120Z 3012/0118 05006KT P6SM OVC008
     FM301500 07004KT P6SM BKN015
     FM301700 10005KT P6SM BKN025
     FM302100 14005KT P6SM BKN040
     FM010300 12008KT 5SM -RA BR OVC015
     FM010600 12008KT 3SM RA BR OVC015
     FM011500 13006KT 2SM BR OVC003=

USA.gov is the U.S. government's official web portal to all federal, state and local government web resources and services.